メインページ
METAR-TAF:

METAR-TAF

空港 :

ホニアラ国際空港

ホニアラ, ガダルカナル島, ソロモン諸島

緯度: 09-25S, 経度: 160-03E, 海抜: 8m

現時点の気象観測

当レポートは17分前の00:00(UTC)に作成
の風 5kt
気温 30°C
湿度 70%
気圧 1011 hPa
視程10km以上
高度1700ftの雲はほとんどない
高度1700ftの雲はほとんどない, 積乱雲.
高度10000ftの雲は散在している

METAR: AGGH 210000Z 36005KT 9999 FEW017 FEW017CB SCT100 30/24 Q1011

時間: 11:17 (00:17 UTC)

予報

当レポートは1時間7分前の23:10(UTC)に作成
予報は21日の 00時(UTC)から 21日の 24時(UTC)まで有効
の風 10kt
視程10km以上
高度1800ftの雲は散在している
高度3000ftの雲は散在している
(弱い) にわか雨, 霧雨
確率 40%
間 INからTE UTC
視程: 1011m
高度1700ftの千切れ雲あり
高度1800ftの雲はほとんどない, 積乱雲.

TAF: AGGH 202310Z 2100/2124 09010KT 9999 -SHDZ SCT018 SCT030 PROB40 INTER 2100/2106 5000 TSSH BKN017 FEW018CB T 31 31 30 28 Q 1012 1010 1009 1011

4,000以上の空港の気象観測と天気予報(METAR報とTAF報)

利用可能な観測所は地図上に黄色い丸と赤い丸で示す。

丸の上にカーソルを重ねると観測所名を参照できる。

次にクリックすると気象観測と天気予報を参照できる。

マップの切り替え:黒色「×」印の緑ボタンをクリックして拡大、「-」印の緑ボタンをクリックして縮小、緑色の三角印をクリックして隣りの地図に切り替え


METAR-TAF: